Time;durP1;ratioP1;P1;durP2;ratioP2;P2;SDS_P1;SDS_P2;PMS_P1;PMS_P2;Temp;Humidity;BMP_temperature;BMP_pressure;BME280_temperature;BME280_humidity;BME280_pressure;Samples;Min_cycle;Max_cycle;Signal;HPM_P1;HPM_P2
2024/01/07 00:02:11;;;;;;;;;3.00;1.67;;;;;6.10;76.97;101508.00;5048748;28;63412;-54
2024/01/07 00:04:37;;;;;;;;;1.00;1.00;;;;;6.08;77.01;101518.59;5069152;28;47411;-51
2024/01/07 00:07:04;;;;;;;;;2.33;1.00;;;;;6.05;77.52;101508.09;5078613;28;46063;-54
2024/01/07 00:09:29;;;;;;;;;3.33;3.00;;;;;6.08;77.52;101515.97;5073219;28;46008;-53
2024/01/07 00:11:54;;;;;;;;;2.33;2.33;;;;;6.08;77.24;101509.81;5068415;28;45847;-53
2024/01/07 00:14:20;;;;;;;;;1.00;1.00;;;;;6.05;77.39;101505.47;5059461;28;68426;-54
2024/01/07 00:16:45;;;;;;;;;2.00;1.00;;;;;6.06;77.17;101511.59;5078382;28;46164;-52
2024/01/07 00:19:10;;;;;;;;;1.00;1.00;;;;;6.04;77.29;101529.28;5060404;28;45418;-51
2024/01/07 00:21:36;;;;;;;;;1.33;1.33;;;;;6.01;77.32;101519.63;5068392;28;65666;-54
2024/01/07 00:24:01;;;;;;;;;1.33;1.33;;;;;5.98;77.04;101517.03;5072357;28;70790;-53
2024/01/07 00:26:26;;;;;;;;;1.00;1.00;;;;;5.96;77.30;101519.69;5070356;28;45896;-53
2024/01/07 00:28:52;;;;;;;;;1.00;1.00;;;;;5.94;77.07;101521.50;5059079;28;72922;-51
2024/01/07 00:31:17;;;;;;;;;4.00;3.00;;;;;5.94;76.92;101525.91;5078564;28;45311;-53
2024/01/07 00:33:42;;;;;;;;;1.00;1.00;;;;;5.94;76.90;101525.91;5077890;28;58786;-53
2024/01/07 00:36:08;;;;;;;;;1.67;0.67;;;;;5.94;77.37;101529.44;5076985;28;51789;-53
2024/01/07 00:38:33;;;;;;;;;1.67;1.33;;;;;5.96;77.30;101530.25;5078826;28;45375;-53
2024/01/07 00:40:58;;;;;;;;;2.00;1.00;;;;;5.99;77.12;101533.78;5077637;28;67421;-53
2024/01/07 00:43:24;;;;;;;;;1.00;1.00;;;;;5.95;76.62;101528.50;5076669;28;68298;-53
2024/01/07 00:45:49;;;;;;;;;0.00;0.00;;;;;5.93;76.38;101532.06;5077184;28;75152;-50
2024/01/07 00:48:15;;;;;;;;;3.00;2.00;;;;;5.92;76.76;101531.22;5078004;28;55426;-54
2024/01/07 00:50:40;;;;;;;;;3.00;3.00;;;;;5.91;76.71;101528.59;5060412;28;45448;-52
2024/01/07 00:53:05;;;;;;;;;0.00;0.00;;;;;5.88;76.39;101523.34;5077143;28;45418;-53
2024/01/07 00:55:31;;;;;;;;;1.00;1.00;;;;;5.86;76.48;101531.31;5076534;28;75574;-53
2024/01/07 00:57:56;;;;;;;;;1.00;1.00;;;;;5.85;76.44;101536.63;5055559;28;45325;-54
2024/01/07 01:00:22;;;;;;;;;3.00;1.33;;;;;5.86;76.55;101528.69;5057358;28;69427;-53
2024/01/07 01:02:47;;;;;;;;;2.00;1.00;;;;;5.86;76.48;101519.91;5058257;28;45608;-50
2024/01/07 01:05:13;;;;;;;;;1.00;1.00;;;;;5.86;76.42;101525.19;5071841;28;70007;-53
2024/01/07 01:07:38;;;;;;;;;1.00;1.00;;;;;5.84;76.38;101530.50;5074490;28;45431;-53
2024/01/07 01:10:04;;;;;;;;;1.00;1.00;;;;;5.76;76.01;101533.28;5066194;28;45837;-51
2024/01/07 01:12:29;;;;;;;;;1.00;1.00;;;;;5.71;76.15;101529.84;5064813;28;45383;-51
2024/01/07 01:14:54;;;;;;;;;1.00;1.00;;;;;5.67;75.91;101537.84;5060454;28;66850;-51
2024/01/07 01:17:20;;;;;;;;;0.00;0.00;;;;;5.60;75.62;101540.56;5077208;28;59081;-53
2024/01/07 01:19:45;;;;;;;;;0.00;0.00;;;;;5.55;75.89;101542.41;5080786;28;45411;-50
2024/01/07 01:22:11;;;;;;;;;1.67;1.00;;;;;5.52;76.21;101541.63;5066403;28;45610;-52
2024/01/07 01:24:36;;;;;;;;;0.00;0.00;;;;;5.47;76.21;101545.22;5060601;28;74669;-54
2024/01/07 01:27:01;;;;;;;;;2.00;1.00;;;;;5.43;76.04;101546.13;5063214;28;62757;-54
2024/01/07 01:29:26;;;;;;;;;1.00;1.00;;;;;5.39;76.32;101533.03;5063202;28;65245;-52
2024/01/07 01:31:52;;;;;;;;;1.00;1.00;;;;;5.36;76.37;101549.78;5066817;28;69292;-52
2024/01/07 01:34:17;;;;;;;;;0.00;0.00;;;;;5.33;76.59;101538.41;5079411;28;70940;-53
2024/01/07 01:36:42;;;;;;;;;1.67;0.00;;;;;5.31;76.39;101556.91;5079924;28;45422;-52
2024/01/07 01:39:08;;;;;;;;;1.00;1.00;;;;;5.33;76.77;101559.50;5068346;28;68316;-54
2024/01/07 01:41:33;;;;;;;;;2.33;1.00;;;;;5.35;76.75;101561.25;5080372;28;45412;-53
2024/01/07 01:43:59;;;;;;;;;0.00;0.00;;;;;5.39;76.63;101557.66;5080174;28;68804;-53
2024/01/07 01:46:25;;;;;;;;;1.00;1.00;;;;;5.45;77.24;101559.34;5046432;28;45629;-51
2024/01/07 01:48:50;;;;;;;;;0.67;0.67;;;;;5.55;76.70;101567.94;5061985;28;61796;-53
2024/01/07 01:51:16;;;;;;;;;2.00;2.00;;;;;5.59;76.45;101561.72;5080513;28;45613;-50
2024/01/07 01:53:42;;;;;;;;;0.00;0.00;;;;;5.59;76.30;101573.16;5080355;28;74366;-54
2024/01/07 01:56:07;;;;;;;;;0.67;0.67;;;;;5.63;75.94;101569.56;5062832;28;72163;-52
2024/01/07 01:58:33;;;;;;;;;1.00;1.00;;;;;5.68;76.02;101577.41;5055261;28;45428;-54
2024/01/07 02:00:58;;;;;;;;;0.67;0.67;;;;;5.70;76.26;101578.25;5035470;28;70594;-51
2024/01/07 02:03:25;;;;;;;;;0.00;0.00;;;;;5.71;75.73;101572.09;5028069;28;71101;-53
2024/01/07 02:05:50;;;;;;;;;0.00;0.00;;;;;5.71;74.84;101574.72;5034575;28;45570;-53
2024/01/07 02:08:17;;;;;;;;;1.00;1.00;;;;;5.70;74.74;101574.75;5039631;28;45397;-53
2024/01/07 02:10:42;;;;;;;;;0.67;0.67;;;;;5.68;74.26;101580.03;5038663;28;45435;-53
2024/01/07 02:13:08;;;;;;;;;2.00;0.00;;;;;5.64;74.68;101583.63;5040218;28;45387;-53
2024/01/07 02:15:34;;;;;;;;;0.00;0.00;;;;;5.67;74.90;101582.72;5039663;28;71636;-52
2024/01/07 02:17:59;;;;;;;;;0.67;0.67;;;;;5.69;74.82;101581.78;5040238;28;45349;-53
2024/01/07 02:20:25;;;;;;;;;2.00;0.00;;;;;5.71;75.00;101587.91;5036193;28;45380;-50
2024/01/07 02:22:51;;;;;;;;;0.00;0.00;;;;;5.73;75.43;101583.47;5021376;28;45201;-50
2024/01/07 02:25:16;;;;;;;;;0.00;0.00;;;;;5.76;74.95;101578.16;5034722;28;45379;-53
2024/01/07 02:27:42;;;;;;;;;1.67;1.00;;;;;5.80;75.03;101581.59;5039263;28;45217;-53
2024/01/07 02:30:07;;;;;;;;;17.00;12.33;;;;;5.83;75.09;101588.59;5054939;28;45542;-52
2024/01/07 02:32:35;;;;;;;;;55.00;40.50;;;;;5.83;75.05;101580.66;5039066;28;46034;-52
2024/01/07 02:35:00;;;;;;;;;52.75;36.00;;;;;5.85;75.09;101584.16;5037382;28;45379;-53
2024/01/07 02:37:26;;;;;;;;;71.50;51.50;;;;;5.86;74.64;101585.91;5039122;28;45394;-53
2024/01/07 02:39:51;;;;;;;;;64.50;51.00;;;;;5.86;74.65;101585.91;5037290;28;56350;-50
2024/01/07 02:42:16;;;;;;;;;43.25;37.50;;;;;5.86;74.56;101585.91;5037982;28;74474;-52
2024/01/07 02:44:42;;;;;;;;;58.00;45.00;;;;;5.84;74.26;101579.78;5053624;28;70138;-52
2024/01/07 02:47:07;;;;;;;;;13.00;11.00;;;;;5.78;73.97;101578.97;5039753;28;45405;-53
2024/01/07 02:49:33;;;;;;;;;9.00;3.00;;;;;5.71;73.83;101584.38;5037957;28;69272;-52
2024/01/07 02:51:58;;;;;;;;;8.00;5.33;;;;;5.60;73.72;101588.09;5037198;28;45315;-53
2024/01/07 02:54:23;;;;;;;;;2.33;2.33;;;;;5.51;73.65;101600.56;5038803;28;72222;-52
2024/01/07 02:56:48;;;;;;;;;1.67;0.67;;;;;5.43;73.67;101598.06;5037700;28;57459;-53
2024/01/07 02:59:14;;;;;;;;;1.67;0.67;;;;;5.38;73.86;101597.25;5047921;28;65054;-53
2024/01/07 03:01:40;;;;;;;;;1.00;1.00;;;;;5.33;73.76;101599.94;5058943;28;75706;-53
2024/01/07 03:04:09;;;;;;;;;1.00;1.00;;;;;5.29;73.89;101600.91;5065234;28;45715;-53
2024/01/07 03:06:34;;;;;;;;;0.00;0.00;;;;;5.30;74.00;101602.66;5079361;28;45680;-50
2024/01/07 03:09:00;;;;;;;;;0.00;0.00;;;;;5.33;73.43;101596.44;5057162;28;45671;-52
2024/01/07 03:11:25;;;;;;;;;1.00;1.00;;;;;5.32;73.59;101597.34;5066723;28;51966;-54
2024/01/07 03:13:50;;;;;;;;;1.00;1.00;;;;;5.32;73.40;101594.69;5078946;28;68824;-50
2024/01/07 03:16:20;;;;;;;;;0.00;0.00;;;;;5.30;73.33;101597.38;5077993;28;69418;-54
2024/01/07 03:18:45;;;;;;;;;1.00;1.00;;;;;5.28;73.48;101605.31;5078758;28;45339;-52
2024/01/07 03:21:19;;;;;;;;;2.00;0.00;;;;;5.21;73.15;101594.88;5053694;28;75319;-54
2024/01/07 03:23:45;;;;;;;;;0.67;0.00;;;;;5.18;73.29;101597.56;5059586;28;45470;-51
2024/01/07 03:26:11;;;;;;;;;2.00;0.33;;;;;5.12;73.25;101590.59;5059926;28;45440;-50
2024/01/07 03:28:36;;;;;;;;;1.33;1.00;;;;;5.07;73.16;101585.41;5076595;28;45361;-54
2024/01/07 03:31:07;;;;;;;;;1.00;1.00;;;;;5.03;73.60;101593.38;5078543;28;75396;-51
2024/01/07 03:33:33;;;;;;;;;2.33;0.00;;;;;5.01;73.38;101589.91;5067182;28;46649;-49
2024/01/07 03:35:58;;;;;;;;;0.00;0.00;;;;;5.01;73.24;101598.69;5076715;28;56822;-52
2024/01/07 03:38:23;;;;;;;;;0.67;0.67;;;;;5.03;73.02;101593.38;5077808;28;70546;-52
2024/01/07 03:40:48;;;;;;;;;0.33;0.33;;;;;5.04;73.22;101600.41;5061089;28;74351;-52
2024/01/07 03:43:14;;;;;;;;;1.00;1.00;;;;;5.02;73.49;101596.91;5077663;28;73113;-52
2024/01/07 03:45:39;;;;;;;;;0.00;0.00;;;;;5.03;73.20;101603.91;5078743;28;68258;-52
2024/01/07 03:48:05;;;;;;;;;1.00;1.00;;;;;5.05;73.33;101608.28;5059432;28;62191;-53
2024/01/07 03:50:30;;;;;;;;;0.33;0.00;;;;;5.08;73.63;101612.66;5078608;28;46773;-54
2024/01/07 03:52:55;;;;;;;;;1.00;1.00;;;;;5.11;73.38;101607.31;5077259;28;71994;-51
2024/01/07 03:55:21;;;;;;;;;1.67;0.33;;;;;5.12;73.17;101609.94;5078765;28;62130;-50
2024/01/07 03:57:46;;;;;;;;;0.67;0.00;;;;;5.17;72.79;101614.28;5042222;28;72795;-53
2024/01/07 04:00:12;;;;;;;;;0.00;0.00;;;;;5.21;73.22;101608.06;5067259;28;45390;-52
2024/01/07 04:02:37;;;;;;;;;1.00;1.00;;;;;5.25;72.81;101609.75;5078183;28;46546;-54
2024/01/07 04:05:03;;;;;;;;;0.33;0.00;;;;;5.26;72.82;101606.22;5073555;28;45525;-53
2024/01/07 04:07:28;;;;;;;;;0.00;0.00;;;;;5.27;72.69;101615.91;5059242;28;45962;-51
2024/01/07 04:09:54;;;;;;;;;1.00;1.00;;;;;5.29;72.87;101614.09;5070174;28;71552;-51
2024/01/07 04:12:19;;;;;;;;;0.67;0.67;;;;;5.30;72.70;101613.19;5060041;28;47644;-51
2024/01/07 04:14:44;;;;;;;;;2.00;0.33;;;;;5.30;72.48;101615.84;5078494;28;68047;-52
2024/01/07 04:17:10;;;;;;;;;1.00;1.00;;;;;5.30;72.34;101606.16;5076626;28;69736;-49
2024/01/07 04:19:38;;;;;;;;;0.00;0.00;;;;;5.31;72.58;101620.22;5053914;28;46125;-52
2024/01/07 04:22:04;;;;;;;;;0.33;0.33;;;;;5.30;71.57;101613.19;5073278;28;45224;-53
2024/01/07 04:24:29;;;;;;;;;2.00;0.00;;;;;5.30;72.13;101614.06;5072831;28;45264;-53
2024/01/07 04:26:54;;;;;;;;;0.33;0.33;;;;;5.30;72.05;101619.34;5058734;28;69815;-52
2024/01/07 04:29:20;;;;;;;;;0.00;0.00;;;;;5.32;72.08;101621.97;5040577;28;46001;-53
2024/01/07 04:31:45;;;;;;;;;0.00;0.00;;;;;5.33;72.04;101615.78;5073080;28;73286;-50
2024/01/07 04:34:10;;;;;;;;;0.00;0.00;;;;;5.33;71.59;101618.41;5077111;28;68203;-51
2024/01/07 04:36:36;;;;;;;;;1.67;1.67;;;;;5.35;72.21;101623.69;5077224;28;70384;-53
2024/01/07 04:39:01;;;;;;;;;2.33;0.00;;;;;5.33;71.42;101628.13;5071138;28;59357;-53
2024/01/07 04:41:26;;;;;;;;;2.00;1.00;;;;;5.32;71.76;101621.09;5071696;28;59808;-52
2024/01/07 04:43:52;;;;;;;;;0.00;0.00;;;;;5.33;71.48;101625.47;5078385;28;45503;-52
2024/01/07 04:46:17;;;;;;;;;1.00;1.00;;;;;5.32;71.78;101621.97;5078531;28;45170;-51
2024/01/07 04:48:43;;;;;;;;;1.00;1.00;;;;;5.33;71.90;101623.69;5078272;28;46777;-53
2024/01/07 04:51:08;;;;;;;;;0.00;0.00;;;;;5.29;71.83;101619.38;5077309;28;45375;-52
2024/01/07 04:53:33;;;;;;;;;0.00;0.00;;;;;5.30;71.55;101623.75;5077994;28;45446;-53
2024/01/07 04:55:59;;;;;;;;;0.00;0.00;;;;;5.33;71.29;101631.59;5066651;28;45384;-52
2024/01/07 04:58:24;;;;;;;;;1.00;1.00;;;;;5.36;71.49;101626.31;5076844;28;70387;-53
2024/01/07 05:00:50;;;;;;;;;0.00;0.00;;;;;5.36;71.71;101628.06;5058908;28;67517;-51
2024/01/07 05:03:15;;;;;;;;;1.00;0.00;;;;;5.35;71.85;101627.19;5054348;28;45379;-52
2024/01/07 05:05:40;;;;;;;;;1.00;1.00;;;;;5.35;71.59;101639.53;5055471;28;70292;-52
2024/01/07 05:08:06;;;;;;;;;2.00;1.00;;;;;5.30;71.32;101631.66;5075982;28;75035;-52
2024/01/07 05:10:31;;;;;;;;;3.00;1.00;;;;;5.25;71.33;101647.59;5066702;28;45430;-52
2024/01/07 05:12:57;;;;;;;;;0.00;0.00;;;;;5.25;71.09;101642.31;5055973;28;62100;-52
2024/01/07 05:15:22;;;;;;;;;1.00;1.00;;;;;5.26;71.09;101645.81;5076883;28;70532;-49
2024/01/07 05:17:47;;;;;;;;;1.67;1.67;;;;;5.27;71.68;101642.28;5060368;28;55244;-52
2024/01/07 05:20:15;;;;;;;;;1.00;0.00;;;;;5.24;71.39;101651.09;5075224;28;72862;-51
2024/01/07 05:22:40;;;;;;;;;2.00;0.00;;;;;5.26;71.62;101643.16;5060875;28;45315;-52
2024/01/07 05:25:06;;;;;;;;;0.00;0.00;;;;;5.28;71.17;101650.16;5047804;28;68284;-52
2024/01/07 05:27:31;;;;;;;;;2.33;1.00;;;;;5.30;71.34;101640.44;5064273;28;45445;-51
2024/01/07 05:29:57;;;;;;;;;0.00;0.00;;;;;5.32;71.27;101653.63;5076239;28;69661;-53
2024/01/07 05:32:22;;;;;;;;;0.00;0.00;;;;;5.30;71.41;101652.78;5078128;28;45343;-51
2024/01/07 05:34:48;;;;;;;;;0.00;0.00;;;;;5.25;71.26;101658.13;5078142;28;45410;-52
2024/01/07 05:37:13;;;;;;;;;1.33;0.00;;;;;5.23;71.20;101654.63;5077693;28;46237;-49
2024/01/07 05:39:38;;;;;;;;;0.00;0.00;;;;;5.23;71.35;101657.28;5077275;28;71994;-52
2024/01/07 05:42:04;;;;;;;;;1.00;1.00;;;;;5.21;71.50;101659.03;5076438;28;46438;-50
2024/01/07 05:44:29;;;;;;;;;0.00;0.00;;;;;5.21;71.77;101660.81;5077482;28;45446;-51
2024/01/07 05:46:54;;;;;;;;;1.00;1.00;;;;;5.23;71.72;101654.63;5075585;28;75496;-50
2024/01/07 05:49:20;;;;;;;;;0.00;0.00;;;;;5.23;71.75;101657.28;5076265;28;72171;-51
2024/01/07 05:51:45;;;;;;;;;0.00;0.00;;;;;5.22;72.19;101666.06;5076434;28;67881;-53
2024/01/07 05:54:11;;;;;;;;;1.00;1.00;;;;;5.20;72.08;101661.72;5076532;28;45838;-53
2024/01/07 05:56:42;;;;;;;;;0.67;0.00;;;;;5.19;72.18;101668.75;5059400;28;46961;-51
2024/01/07 05:59:08;;;;;;;;;0.67;0.00;;;;;5.19;72.05;101662.59;5066021;28;45575;-53
2024/01/07 06:01:33;;;;;;;;;1.00;1.00;;;;;5.19;72.61;101665.22;5061498;28;60105;-52
2024/01/07 06:03:58;;;;;;;;;0.00;0.00;;;;;5.18;72.11;101666.16;5075132;28;48225;-54
2024/01/07 06:06:24;;;;;;;;;0.00;0.00;;;;;5.14;72.34;101676.72;5080257;28;46119;-54
2024/01/07 06:08:49;;;;;;;;;1.67;1.00;;;;;5.15;72.38;101674.97;5079740;28;62216;-51
2024/01/07 06:11:18;;;;;;;;;3.00;1.33;;;;;5.17;72.63;101681.09;5049950;28;67455;-51
2024/01/07 06:13:44;;;;;;;;;0.33;0.00;;;;;5.19;72.79;101670.50;5063169;28;46287;-53
2024/01/07 06:16:10;;;;;;;;;1.00;1.00;;;;;5.19;73.11;101674.03;5079560;28;46959;-53
2024/01/07 06:18:35;;;;;;;;;2.00;1.00;;;;;5.18;73.14;101674.06;5079839;28;45359;-52
2024/01/07 06:21:00;;;;;;;;;0.00;0.00;;;;;5.17;73.27;101678.44;5074629;28;64225;-53
2024/01/07 06:23:26;;;;;;;;;1.33;0.33;;;;;5.19;72.88;101686.34;5055161;28;69337;-50
2024/01/07 06:25:51;;;;;;;;;5.00;1.00;;;;;5.18;72.99;101684.63;5079622;28;46875;-53
2024/01/07 06:28:16;;;;;;;;;1.00;0.67;;;;;5.16;73.41;101689.03;5080217;28;45342;-52
2024/01/07 06:30:42;;;;;;;;;1.00;1.00;;;;;5.15;73.35;101680.25;5079106;28;69158;-52
2024/01/07 06:33:07;;;;;;;;;0.67;0.67;;;;;5.14;74.23;101682.00;5078953;28;65343;-53
2024/01/07 06:35:32;;;;;;;;;0.00;0.00;;;;;5.17;74.10;101685.50;5079705;28;45449;-52
2024/01/07 06:37:58;;;;;;;;;0.00;0.00;;;;;5.18;74.13;101685.47;5080554;28;45166;-52
2024/01/07 06:40:23;;;;;;;;;2.67;1.00;;;;;5.20;73.96;101675.78;5079806;28;47334;-54
2024/01/07 06:42:48;;;;;;;;;1.00;1.00;;;;;5.24;74.17;101681.88;5078987;28;68866;-53
2024/01/07 06:45:15;;;;;;;;;0.67;0.67;;;;;5.24;74.00;101681.88;5056606;28;46161;-52
2024/01/07 06:47:40;;;;;;;;;1.00;1.00;;;;;5.25;73.81;101684.50;5072454;28;45327;-53
2024/01/07 06:50:06;;;;;;;;;0.33;0.00;;;;;5.22;74.12;101689.81;5078523;28;45642;-50
2024/01/07 06:52:32;;;;;;;;;1.00;1.00;;;;;5.22;74.43;101695.09;5080900;28;45656;-53
2024/01/07 06:54:57;;;;;;;;;0.00;0.00;;;;;5.20;74.34;101691.63;5078242;28;74307;-52
2024/01/07 06:57:22;;;;;;;;;2.33;1.67;;;;;5.18;74.17;101696.03;5079337;28;71370;-53
2024/01/07 06:59:48;;;;;;;;;0.00;0.00;;;;;5.15;74.29;101701.34;5061199;28;45497;-53
2024/01/07 07:02:14;;;;;;;;;1.67;1.00;;;;;5.14;74.17;101708.38;5072501;28;45920;-54
2024/01/07 07:04:40;;;;;;;;;2.00;1.00;;;;;5.13;74.26;101713.69;5074372;28;45365;-53
2024/01/07 07:07:05;;;;;;;;;1.67;1.33;;;;;5.12;74.28;101711.91;5078355;28;45410;-53
2024/01/07 07:09:30;;;;;;;;;7.00;3.00;;;;;5.06;74.25;101710.25;5075319;28;69586;-53
2024/01/07 07:11:56;;;;;;;;;1.00;1.00;;;;;5.00;74.43;101712.09;5070310;28;45288;-51
2024/01/07 07:14:21;;;;;;;;;1.67;1.00;;;;;4.93;74.42;101719.22;5077681;28;75860;-52
2024/01/07 07:16:46;;;;;;;;;1.00;1.00;;;;;4.88;74.59;101715.75;5079112;28;72072;-51
2024/01/07 07:19:14;;;;;;;;;1.33;1.00;;;;;4.81;74.48;101725.50;5078300;28;68704;-52
2024/01/07 07:21:40;;;;;;;;;1.00;1.00;;;;;4.75;75.15;101726.41;5069897;28;45475;-52
2024/01/07 07:24:05;;;;;;;;;2.00;1.33;;;;;4.72;75.08;101729.09;5077808;28;46297;-51
2024/01/07 07:26:31;;;;;;;;;1.00;1.00;;;;;4.71;75.69;101734.41;5044856;28;45457;-51
2024/01/07 07:28:56;;;;;;;;;2.33;1.00;;;;;4.72;75.38;101738.75;5061339;28;45782;-51
2024/01/07 07:31:21;;;;;;;;;1.00;1.00;;;;;4.76;75.46;101737.84;5057402;28;68718;-52
2024/01/07 07:33:47;;;;;;;;;1.00;1.00;;;;;4.78;75.80;101747.50;5075984;28;75127;-51
2024/01/07 07:36:12;;;;;;;;;2.33;1.00;;;;;4.83;75.20;101738.66;5068298;28;72159;-52
2024/01/07 07:38:37;;;;;;;;;3.00;0.33;;;;;4.82;75.50;101743.03;5075348;28;68418;-52
2024/01/07 07:41:03;;;;;;;;;2.00;1.33;;;;;4.85;74.86;101744.75;5061297;28;70436;-52
2024/01/07 07:43:29;;;;;;;;;1.00;1.00;;;;;4.83;74.76;101738.66;5079499;28;45890;-53
2024/01/07 07:45:54;;;;;;;;;2.00;2.00;;;;;4.82;74.39;101737.75;5078439;28;45415;-51
2024/01/07 07:48:20;;;;;;;;;2.00;1.33;;;;;4.78;74.73;101739.59;5077424;28;63426;-51
2024/01/07 07:50:45;;;;;;;;;3.67;2.00;;;;;4.74;74.89;101739.63;5077960;28;70431;-52
2024/01/07 07:53:11;;;;;;;;;2.00;1.00;;;;;4.76;74.87;101744.00;5078115;28;64338;-52
2024/01/07 07:55:36;;;;;;;;;2.00;2.00;;;;;4.80;74.91;101742.19;5078658;28;70188;-53
2024/01/07 07:58:01;;;;;;;;;3.00;3.00;;;;;4.80;73.97;101750.09;5072860;28;69633;-52
2024/01/07 08:00:26;;;;;;;;;2.00;2.00;;;;;4.78;74.26;101754.50;5058384;28;67711;-52
2024/01/07 08:02:52;;;;;;;;;2.33;2.00;;;;;4.73;73.71;101751.94;5061846;28;75654;-50
2024/01/07 08:05:17;;;;;;;;;1.67;1.67;;;;;4.69;73.69;101759.88;5074061;28;45518;-53
2024/01/07 08:07:43;;;;;;;;;3.00;3.00;;;;;4.68;73.78;101766.94;5078638;28;45296;-52
2024/01/07 08:10:09;;;;;;;;;5.67;3.00;;;;;4.63;73.86;101768.72;5070321;28;45518;-51
2024/01/07 08:12:34;;;;;;;;;4.00;1.00;;;;;4.63;73.58;101761.69;5062278;28;46118;-54
2024/01/07 08:14:59;;;;;;;;;3.00;3.00;;;;;4.67;73.97;101772.19;5060254;28;45421;-52
2024/01/07 08:17:25;;;;;;;;;5.67;3.67;;;;;4.70;73.69;101770.41;5078052;28;69295;-52
2024/01/07 08:19:50;;;;;;;;;6.67;3.67;;;;;4.74;73.67;101774.75;5076257;28;69210;-52
2024/01/07 08:22:15;;;;;;;;;3.33;3.33;;;;;4.76;73.46;101782.66;5066893;28;46558;-52
2024/01/07 08:24:41;;;;;;;;;2.00;1.00;;;;;4.75;73.30;101779.13;5071833;28;45517;-52
2024/01/07 08:27:06;;;;;;;;;4.00;3.00;;;;;4.79;73.17;101777.34;5075520;28;45411;-53
2024/01/07 08:29:32;;;;;;;;;2.33;2.00;;;;;4.85;72.75;101786.94;5077267;28;61465;-52
2024/01/07 08:31:57;;;;;;;;;3.00;3.00;;;;;4.89;72.73;101776.38;5078080;28;52874;-53
2024/01/07 08:34:23;;;;;;;;;4.00;3.00;;;;;4.92;72.90;101786.00;5077591;28;46036;-53
2024/01/07 08:36:49;;;;;;;;;5.00;2.67;;;;;4.93;71.06;101782.50;5078895;28;45648;-52
2024/01/07 08:39:15;;;;;;;;;4.67;4.67;;;;;4.89;70.72;101792.19;5079056;28;45589;-53
2024/01/07 08:41:40;;;;;;;;;2.67;1.00;;;;;4.86;71.05;101788.69;5060252;28;45446;-49
2024/01/07 08:44:06;;;;;;;;;8.00;7.00;;;;;4.86;69.75;101789.56;5076854;28;45550;-50
2024/01/07 08:46:31;;;;;;;;;4.00;4.00;;;;;4.85;70.37;101790.47;5078793;28;45481;-52
2024/01/07 08:48:56;;;;;;;;;5.00;4.00;;;;;4.87;70.14;101795.72;5076500;28;65090;-52
2024/01/07 08:51:22;;;;;;;;;6.67;3.00;;;;;4.86;69.41;101794.84;5077575;28;75338;-52
2024/01/07 08:53:47;;;;;;;;;7.00;3.00;;;;;4.85;68.52;101800.13;5055476;28;68410;-52
2024/01/07 08:56:12;;;;;;;;;4.33;1.00;;;;;4.85;69.60;101802.78;5074503;28;45416;-52
2024/01/07 08:58:41;;;;;;;;;2.00;2.00;;;;;4.87;69.54;101807.13;5056726;28;45507;-52
2024/01/07 09:01:06;;;;;;;;;5.33;3.33;;;;;4.89;70.02;101813.28;5057570;28;46589;-52
2024/01/07 09:03:31;;;;;;;;;4.33;2.00;;;;;4.92;69.35;101800.06;5058103;28;71832;-50
2024/01/07 09:05:56;;;;;;;;;5.00;4.00;;;;;4.96;69.58;101811.44;5058566;28;69351;-52
2024/01/07 09:08:22;;;;;;;;;3.67;3.67;;;;;4.95;69.66;101812.34;5076772;28;64862;-52
2024/01/07 09:10:48;;;;;;;;;3.00;2.67;;;;;4.92;69.19;101809.75;5059692;28;46947;-53
2024/01/07 09:13:13;;;;;;;;;6.00;3.00;;;;;4.94;68.86;101805.31;5058883;28;58433;-52
2024/01/07 09:15:38;;;;;;;;;3.67;3.00;;;;;4.96;68.70;101808.81;5046554;28;68294;-53
2024/01/07 09:18:04;;;;;;;;;5.67;4.00;;;;;4.93;67.87;101817.63;5041097;28;45653;-52
2024/01/07 09:20:29;;;;;;;;;8.33;7.00;;;;;4.90;67.99;101811.50;5060426;28;45978;-53
2024/01/07 09:22:55;;;;;;;;;8.33;6.67;;;;;4.89;67.56;101822.94;5075641;28;73332;-52
2024/01/07 09:25:20;;;;;;;;;7.67;7.67;;;;;4.92;68.08;101815.00;5075211;28;68101;-52
2024/01/07 09:27:45;;;;;;;;;5.00;5.00;;;;;4.95;68.16;101821.13;5077385;28;70460;-52
2024/01/07 09:30:14;;;;;;;;;5.67;4.33;;;;;5.01;68.47;101820.19;5062030;28;46375;-50
2024/01/07 09:32:40;;;;;;;;;8.33;5.00;;;;;5.08;67.95;101823.63;5067346;28;45627;-53
2024/01/07 09:35:05;;;;;;;;;10.00;8.00;;;;;5.10;66.67;101819.22;5076703;28;45399;-48
2024/01/07 09:37:31;;;;;;;;;7.33;6.67;;;;;5.11;67.82;101826.22;5081785;28;45400;-52
2024/01/07 09:39:56;;;;;;;;;8.33;7.00;;;;;5.11;68.13;101824.47;5080429;28;45501;-52
2024/01/07 09:42:21;;;;;;;;;8.67;8.67;;;;;5.10;68.00;101820.09;5081229;28;45356;-52
2024/01/07 09:44:48;;;;;;;;;13.33;9.00;;;;;5.11;67.80;101831.50;5080631;28;67788;-52
2024/01/07 09:47:14;;;;;;;;;9.33;8.33;;;;;5.11;67.39;101835.03;5080248;28;71179;-51
2024/01/07 09:49:40;;;;;;;;;4.00;4.00;;;;;5.10;68.02;101830.63;5080817;28;46204;-51
2024/01/07 09:52:07;;;;;;;;;16.00;9.00;;;;;5.12;68.17;101831.50;5062386;28;45430;-52
2024/01/07 09:54:33;;;;;;;;;8.67;7.67;;;;;5.15;68.42;101830.59;5081044;28;45375;-58
2024/01/07 09:57:03;;;;;;;;;8.33;8.33;;;;;5.19;68.33;101827.03;5080540;28;45447;-52
2024/01/07 09:59:29;;;;;;;;;11.67;8.00;;;;;5.21;67.92;101835.78;5080909;28;46411;-53
2024/01/07 10:01:55;;;;;;;;;10.33;9.00;;;;;5.20;67.76;101843.72;5080677;28;45298;-52
2024/01/07 10:04:20;;;;;;;;;9.67;8.33;;;;;5.17;67.78;101841.13;5062603;28;45371;-53
2024/01/07 10:06:46;;;;;;;;;10.00;9.67;;;;;5.16;67.75;101842.00;5080368;28;66245;-49
2024/01/07 10:09:18;;;;;;;;;7.67;5.67;;;;;5.16;67.81;101844.66;5079149;28;69479;-52
2024/01/07 10:11:44;;;;;;;;;6.33;6.33;;;;;5.16;67.26;101836.75;5080101;28;45514;-53
2024/01/07 10:14:10;;;;;;;;;9.67;8.67;;;;;5.11;67.49;101839.41;5062382;28;45375;-51
2024/01/07 10:16:35;;;;;;;;;10.00;9.00;;;;;5.09;67.35;101834.16;5081040;28;45476;-51
2024/01/07 10:19:00;;;;;;;;;9.00;9.00;;;;;5.08;67.25;101840.31;5076614;28;45983;-52
2024/01/07 10:21:26;;;;;;;;;9.00;7.00;;;;;5.06;67.08;101850.03;5069420;28;72343;-51
2024/01/07 10:24:07;;;;;;;;;8.00;8.00;;;;;5.04;66.67;101850.94;5077364;28;69531;-52
2024/01/07 10:26:32;;;;;;;;;9.67;7.00;;;;;5.01;66.96;101848.34;5061840;28;45506;-52
2024/01/07 10:28:58;;;;;;;;;11.00;9.67;;;;;5.06;66.95;101854.41;5060311;28;60932;-51
2024/01/07 10:31:23;;;;;;;;;13.33;10.00;;;;;5.10;67.55;101843.81;5061702;28;45443;-51
2024/01/07 10:33:49;;;;;;;;;8.67;8.67;;;;;5.14;67.30;101844.66;5063286;28;45289;-50
2024/01/07 10:36:15;;;;;;;;;10.33;9.67;;;;;5.20;67.44;101847.25;5061881;28;56088;-53
2024/01/07 10:38:41;;;;;;;;;11.67;9.00;;;;;5.26;67.10;101843.66;5079631;28;45998;-53
2024/01/07 10:41:09;;;;;;;;;11.00;8.67;;;;;5.29;67.07;101838.34;5061829;28;45304;-52
2024/01/07 10:43:36;;;;;;;;;7.67;7.67;;;;;5.34;67.03;101844.44;5079779;28;45869;-51
2024/01/07 10:46:03;;;;;;;;;11.33;9.00;;;;;5.39;67.34;101857.59;5079556;28;45442;-52
2024/01/07 10:48:32;;;;;;;;;10.00;7.67;;;;;5.34;66.55;101848.84;5061905;28;45791;-53
2024/01/07 10:50:59;;;;;;;;;13.00;9.67;;;;;5.31;66.97;101847.13;5061473;28;45542;-53
2024/01/07 10:53:28;;;;;;;;;10.00;10.00;;;;;5.33;67.33;101858.50;5080150;28;45482;-50
2024/01/07 10:56:00;;;;;;;;;8.33;8.33;;;;;5.33;67.24;101855.00;5079762;28;45663;-51
2024/01/07 10:58:26;;;;;;;;;11.33;9.00;;;;;5.31;66.71;101860.31;5079739;28;45343;-50
2024/01/07 11:00:52;;;;;;;;;10.67;8.67;;;;;5.28;67.06;101852.44;5061200;28;45884;-49
2024/01/07 11:03:38;;;;;;;;;12.67;8.00;;;;;5.26;67.04;101851.56;5079911;28;45517;-51
2024/01/07 11:06:09;;;;;;;;;15.33;13.33;;;;;5.27;67.28;101850.69;5030521;28;45485;-51
2024/01/07 11:08:58;;;;;;;;;11.67;10.33;;;;;5.28;67.31;101848.03;5061181;28;46274;-50
2024/01/07 11:11:43;;;;;;;;;15.67;10.00;;;;;5.27;67.19;101853.34;5046134;28;45293;-53
2024/01/07 11:14:40;;;;;;;;;11.33;8.00;;;;;5.25;66.69;101850.72;5078931;28;45473;-51
2024/01/07 11:17:06;;;;;;;;;16.00;16.00;;;;;5.20;66.90;101856.91;5079899;28;45470;-52
2024/01/07 11:19:32;;;;;;;;;15.67;11.00;;;;;5.13;67.54;101853.47;5079594;28;46386;-51
2024/01/07 11:22:29;;;;;;;;;14.00;10.33;;;;;5.09;67.38;101860.53;5065451;28;45291;-52
2024/01/07 11:24:59;;;;;;;;;17.67;13.67;;;;;5.09;67.23;101865.81;5069922;28;45645;-52
2024/01/07 11:27:25;;;;;;;;;15.67;11.67;;;;;5.09;67.21;101852.63;5065065;28;45387;-53